sensor_id;sensor_type;location;lat;lon;timestamp;pressure;altitude;pressure_sealevel;temperature;humidity
74716;BME280;63234;37.558;127.058;2023-07-13T00:01:28;100044.81;;;20.94;47.11
74716;BME280;63234;37.558;127.058;2023-07-13T00:03:55;100052.41;;;20.92;47.31
74716;BME280;63234;37.558;127.058;2023-07-13T00:06:21;100049.28;;;21.03;47.45
74716;BME280;63234;37.558;127.058;2023-07-13T00:08:47;100049.28;;;21.03;46.83
74716;BME280;63234;37.558;127.058;2023-07-13T00:11:16;100053.50;;;21.10;47.39
74716;BME280;63234;37.558;127.058;2023-07-13T00:13:43;100060.31;;;21.07;47.27
74716;BME280;63234;37.558;127.058;2023-07-13T00:16:10;100060.09;;;21.03;46.86
74716;BME280;63234;37.558;127.058;2023-07-13T00:18:36;100050.66;;;21.01;47.21
74716;BME280;63234;37.558;127.058;2023-07-13T00:21:03;100051.88;;;20.90;47.61
74716;BME280;63234;37.558;127.058;2023-07-13T00:23:37;100067.53;;;20.93;47.52
74716;BME280;63234;37.558;127.058;2023-07-13T00:26:04;100066.66;;;20.97;47.42
74716;BME280;63234;37.558;127.058;2023-07-13T00:28:31;100065.19;;;20.86;47.34
74716;BME280;63234;37.558;127.058;2023-07-13T00:30:58;100062.19;;;20.88;47.54
74716;BME280;63234;37.558;127.058;2023-07-13T00:33:24;100071.16;;;20.83;47.62
74716;BME280;63234;37.558;127.058;2023-07-13T00:35:50;100075.19;;;20.85;47.94
74716;BME280;63234;37.558;127.058;2023-07-13T00:38:16;100066.50;;;20.89;47.38
74716;BME280;63234;37.558;127.058;2023-07-13T00:40:42;100070.38;;;20.82;47.71
74716;BME280;63234;37.558;127.058;2023-07-13T00:43:13;100058.88;;;20.91;47.79
74716;BME280;63234;37.558;127.058;2023-07-13T00:48:12;100078.47;;;20.82;48.28
74716;BME280;63234;37.558;127.058;2023-07-13T00:50:40;100071.59;;;20.90;48.38
74716;BME280;63234;37.558;127.058;2023-07-13T00:53:07;100070.09;;;21.03;48.31
74716;BME280;63234;37.558;127.058;2023-07-13T00:55:35;100062.25;;;20.82;48.07
74716;BME280;63234;37.558;127.058;2023-07-13T00:58:02;100068.25;;;20.79;48.18
74716;BME280;63234;37.558;127.058;2023-07-13T01:00:30;100079.47;;;20.68;48.14
74716;BME280;63234;37.558;127.058;2023-07-13T01:02:56;100068.88;;;20.71;48.44
74716;BME280;63234;37.558;127.058;2023-07-13T01:05:23;100075.25;;;20.80;48.54
74716;BME280;63234;37.558;127.058;2023-07-13T01:07:51;100075.31;;;20.75;48.49
74716;BME280;63234;37.558;127.058;2023-07-13T01:10:21;100074.22;;;20.57;48.45
74716;BME280;63234;37.558;127.058;2023-07-13T01:12:48;100072.88;;;20.55;48.92
74716;BME280;63234;37.558;127.058;2023-07-13T01:15:37;100072.47;;;20.67;49.12
74716;BME280;63234;37.558;127.058;2023-07-13T01:18:05;100069.03;;;20.61;49.45
74716;BME280;63234;37.558;127.058;2023-07-13T01:20:31;100066.97;;;20.53;49.39
74716;BME280;63234;37.558;127.058;2023-07-13T01:23:10;100077.84;;;20.43;49.65
74716;BME280;63234;37.558;127.058;2023-07-13T01:25:37;100078.94;;;20.42;49.57
74716;BME280;63234;37.558;127.058;2023-07-13T01:28:05;100072.31;;;20.29;50.07
74716;BME280;63234;37.558;127.058;2023-07-13T01:30:32;100066.56;;;20.35;50.11
74716;BME280;63234;37.558;127.058;2023-07-13T01:32:58;100060.66;;;20.09;49.90
74716;BME280;63234;37.558;127.058;2023-07-13T01:35:24;100057.81;;;19.96;50.23
74716;BME280;63234;37.558;127.058;2023-07-13T01:37:52;100070.13;;;20.07;50.36
74716;BME280;63234;37.558;127.058;2023-07-13T01:40:19;100065.75;;;20.11;50.69
74716;BME280;63234;37.558;127.058;2023-07-13T01:42:46;100064.41;;;20.13;50.42
74716;BME280;63234;37.558;127.058;2023-07-13T01:45:12;100059.91;;;20.04;50.26
74716;BME280;63234;37.558;127.058;2023-07-13T01:47:38;100063.59;;;20.13;50.75
74716;BME280;63234;37.558;127.058;2023-07-13T01:50:04;100064.16;;;20.10;50.38
74716;BME280;63234;37.558;127.058;2023-07-13T01:52:30;100065.75;;;20.11;51.18
74716;BME280;63234;37.558;127.058;2023-07-13T01:54:56;100064.78;;;20.02;50.67
74716;BME280;63234;37.558;127.058;2023-07-13T01:57:21;100065.72;;;19.87;51.38
74716;BME280;63234;37.558;127.058;2023-07-13T01:59:48;100058.69;;;19.91;51.22
74716;BME280;63234;37.558;127.058;2023-07-13T02:02:13;100056.25;;;19.89;52.17
74716;BME280;63234;37.558;127.058;2023-07-13T02:04:40;100047.38;;;19.89;51.66
74716;BME280;63234;37.558;127.058;2023-07-13T02:07:08;100053.06;;;19.87;51.40
74716;BME280;63234;37.558;127.058;2023-07-13T02:09:35;100053.38;;;19.81;51.48
74716;BME280;63234;37.558;127.058;2023-07-13T02:12:01;100055.97;;;19.57;52.25
74716;BME280;63234;37.558;127.058;2023-07-13T02:14:27;100051.13;;;19.59;52.50
74716;BME280;63234;37.558;127.058;2023-07-13T02:16:53;100047.06;;;19.66;52.68
74716;BME280;63234;37.558;127.058;2023-07-13T02:19:19;100057.47;;;19.78;53.03
74716;BME280;63234;37.558;127.058;2023-07-13T02:21:44;100052.34;;;19.77;51.79
74716;BME280;63234;37.558;127.058;2023-07-13T02:24:10;100053.38;;;19.81;52.21
74716;BME280;63234;37.558;127.058;2023-07-13T02:26:43;100054.78;;;19.78;52.49
74716;BME280;63234;37.558;127.058;2023-07-13T02:29:10;100049.84;;;19.85;52.90
74716;BME280;63234;37.558;127.058;2023-07-13T02:31:36;100053.47;;;19.70;52.83
74716;BME280;63234;37.558;127.058;2023-07-13T02:34:03;100044.97;;;19.53;52.66
74716;BME280;63234;37.558;127.058;2023-07-13T02:36:30;100057.09;;;19.51;52.47
74716;BME280;63234;37.558;127.058;2023-07-13T02:38:59;100064.47;;;19.45;52.62
74716;BME280;63234;37.558;127.058;2023-07-13T02:41:26;100059.75;;;19.21;53.50
74716;BME280;63234;37.558;127.058;2023-07-13T02:43:52;100062.31;;;19.42;53.25
74716;BME280;63234;37.558;127.058;2023-07-13T02:46:18;100058.00;;;19.41;53.62
74716;BME280;63234;37.558;127.058;2023-07-13T02:48:45;100056.47;;;19.30;53.89
74716;BME280;63234;37.558;127.058;2023-07-13T02:51:11;100056.59;;;19.48;54.00
74716;BME280;63234;37.558;127.058;2023-07-13T02:53:37;100064.97;;;19.47;53.66
74716;BME280;63234;37.558;127.058;2023-07-13T02:56:04;100062.25;;;19.47;53.48
74716;BME280;63234;37.558;127.058;2023-07-13T02:58:30;100064.75;;;19.38;53.27
74716;BME280;63234;37.558;127.058;2023-07-13T03:00:57;100067.75;;;19.37;53.81
74716;BME280;63234;37.558;127.058;2023-07-13T03:03:23;100064.28;;;19.31;54.77
74716;BME280;63234;37.558;127.058;2023-07-13T03:05:59;100060.88;;;19.15;55.45
74716;BME280;63234;37.558;127.058;2023-07-13T03:08:26;100072.66;;;19.30;55.31
74716;BME280;63234;37.558;127.058;2023-07-13T03:11:06;100070.88;;;19.15;55.37
74716;BME280;63234;37.558;127.058;2023-07-13T03:13:33;100071.66;;;19.15;55.81
74716;BME280;63234;37.558;127.058;2023-07-13T03:15:59;100079.91;;;19.29;55.66
74716;BME280;63234;37.558;127.058;2023-07-13T03:18:27;100076.97;;;19.31;55.25
74716;BME280;63234;37.558;127.058;2023-07-13T03:20:53;100075.31;;;19.35;54.01
74716;BME280;63234;37.558;127.058;2023-07-13T03:23:21;100084.47;;;19.34;53.64
74716;BME280;63234;37.558;127.058;2023-07-13T03:25:48;100083.56;;;19.48;52.65
74716;BME280;63234;37.558;127.058;2023-07-13T03:28:14;100090.47;;;19.60;52.50
74716;BME280;63234;37.558;127.058;2023-07-13T03:30:41;100087.78;;;19.65;51.75
74716;BME280;63234;37.558;127.058;2023-07-13T03:33:07;100096.59;;;19.36;52.93
74716;BME280;63234;37.558;127.058;2023-07-13T03:35:34;100096.16;;;19.24;53.54
74716;BME280;63234;37.558;127.058;2023-07-13T03:38:01;100092.34;;;19.25;53.92
74716;BME280;63234;37.558;127.058;2023-07-13T03:40:27;100100.66;;;19.34;54.21
74716;BME280;63234;37.558;127.058;2023-07-13T03:42:54;100104.13;;;19.39;53.65
74716;BME280;63234;37.558;127.058;2023-07-13T03:45:20;100099.06;;;19.33;53.98
74716;BME280;63234;37.558;127.058;2023-07-13T03:47:45;100097.97;;;19.34;54.71
74716;BME280;63234;37.558;127.058;2023-07-13T03:50:11;100093.81;;;19.46;54.87
74716;BME280;63234;37.558;127.058;2023-07-13T03:52:37;100095.53;;;19.32;54.27
74716;BME280;63234;37.558;127.058;2023-07-13T03:55:04;100094.97;;;19.35;53.78
74716;BME280;63234;37.558;127.058;2023-07-13T03:57:32;100087.41;;;19.37;54.11
74716;BME280;63234;37.558;127.058;2023-07-13T03:59:57;100098.75;;;19.39;53.79
74716;BME280;63234;37.558;127.058;2023-07-13T04:02:23;100091.22;;;19.36;53.49
74716;BME280;63234;37.558;127.058;2023-07-13T04:04:49;100094.78;;;19.27;53.92
74716;BME280;63234;37.558;127.058;2023-07-13T04:07:15;100101.78;;;19.28;53.10
74716;BME280;63234;37.558;127.058;2023-07-13T04:09:41;100102.91;;;19.16;53.04
74716;BME280;63234;37.558;127.058;2023-07-13T04:12:07;100104.03;;;19.10;54.00
74716;BME280;63234;37.558;127.058;2023-07-13T04:14:33;100098.63;;;19.15;54.47
74716;BME280;63234;37.558;127.058;2023-07-13T04:16:59;100102.03;;;19.26;53.80
74716;BME280;63234;37.558;127.058;2023-07-13T04:19:25;100109.41;;;19.10;54.41
74716;BME280;63234;37.558;127.058;2023-07-13T04:21:51;100115.91;;;19.09;54.62
74716;BME280;63234;37.558;127.058;2023-07-13T04:24:17;100122.19;;;18.89;54.43
74716;BME280;63234;37.558;127.058;2023-07-13T04:26:42;100121.63;;;18.92;54.76
74716;BME280;63234;37.558;127.058;2023-07-13T04:29:09;100134.34;;;18.71;55.07
74716;BME280;63234;37.558;127.058;2023-07-13T04:31:35;100130.59;;;18.67;55.37
74716;BME280;63234;37.558;127.058;2023-07-13T04:34:01;100126.31;;;18.66;54.93
74716;BME280;63234;37.558;127.058;2023-07-13T04:36:28;100128.19;;;18.61;54.88
74716;BME280;63234;37.558;127.058;2023-07-13T04:38:54;100129.25;;;18.65;54.92
74716;BME280;63234;37.558;127.058;2023-07-13T04:41:21;100135.97;;;18.72;54.74
74716;BME280;63234;37.558;127.058;2023-07-13T04:43:47;100140.31;;;18.63;54.83
74716;BME280;63234;37.558;127.058;2023-07-13T04:46:15;100151.59;;;18.70;55.08
74716;BME280;63234;37.558;127.058;2023-07-13T04:48:43;100146.50;;;18.74;54.82
74716;BME280;63234;37.558;127.058;2023-07-13T04:51:09;100138.44;;;18.64;54.77
74716;BME280;63234;37.558;127.058;2023-07-13T04:53:36;100140.63;;;18.51;55.44
74716;BME280;63234;37.558;127.058;2023-07-13T04:56:03;100142.75;;;18.49;55.58
74716;BME280;63234;37.558;127.058;2023-07-13T04:58:29;100147.63;;;18.47;55.81
74716;BME280;63234;37.558;127.058;2023-07-13T05:01:02;100144.91;;;18.52;55.69
74716;BME280;63234;37.558;127.058;2023-07-13T05:03:29;100149.19;;;18.64;55.46
74716;BME280;63234;37.558;127.058;2023-07-13T05:05:57;100147.00;;;18.71;55.37
74716;BME280;63234;37.558;127.058;2023-07-13T05:08:23;100143.25;;;18.72;55.03
74716;BME280;63234;37.558;127.058;2023-07-13T05:10:50;100139.28;;;18.49;54.86
74716;BME280;63234;37.558;127.058;2023-07-13T05:13:17;100147.09;;;18.45;55.30
74716;BME280;63234;37.558;127.058;2023-07-13T05:15:43;100134.19;;;18.42;54.59
74716;BME280;63234;37.558;127.058;2023-07-13T05:18:08;100146.50;;;18.58;54.58
74716;BME280;63234;37.558;127.058;2023-07-13T05:20:34;100150.28;;;18.63;54.64
74716;BME280;63234;37.558;127.058;2023-07-13T05:23:00;100157.03;;;18.50;54.31
74716;BME280;63234;37.558;127.058;2023-07-13T05:25:26;100156.25;;;18.39;54.61
74716;BME280;63234;37.558;127.058;2023-07-13T05:27:52;100160.00;;;18.48;54.55
74716;BME280;63234;37.558;127.058;2023-07-13T05:30:18;100163.47;;;18.59;54.09
74716;BME280;63234;37.558;127.058;2023-07-13T05:32:44;100171.81;;;18.78;53.64
74716;BME280;63234;37.558;127.058;2023-07-13T05:35:11;100168.03;;;18.74;53.49
74716;BME280;63234;37.558;127.058;2023-07-13T05:37:37;100173.88;;;19.01;52.84
74716;BME280;63234;37.558;127.058;2023-07-13T05:40:04;100173.28;;;19.15;52.92
74716;BME280;63234;37.558;127.058;2023-07-13T05:42:30;100167.13;;;19.04;52.66
74716;BME280;63234;37.558;127.058;2023-07-13T05:44:57;100172.75;;;19.13;52.55
74716;BME280;63234;37.558;127.058;2023-07-13T05:47:23;100171.97;;;19.07;52.22
74716;BME280;63234;37.558;127.058;2023-07-13T05:49:49;100182.97;;;19.21;52.15
74716;BME280;63234;37.558;127.058;2023-07-13T05:52:14;100182.72;;;19.12;51.47
74716;BME280;63234;37.558;127.058;2023-07-13T05:54:40;100181.94;;;19.12;52.18
74716;BME280;63234;37.558;127.058;2023-07-13T05:57:06;100181.63;;;19.18;51.19
74716;BME280;63234;37.558;127.058;2023-07-13T05:59:32;100196.13;;;19.33;50.95
74716;BME280;63234;37.558;127.058;2023-07-13T06:01:58;100191.91;;;19.11;50.81
74716;BME280;63234;37.558;127.058;2023-07-13T06:04:24;100196.75;;;19.14;51.62
74716;BME280;63234;37.558;127.058;2023-07-13T06:06:50;100193.75;;;19.21;51.76
74716;BME280;63234;37.558;127.058;2023-07-13T06:09:16;100195.75;;;19.49;50.95
74716;BME280;63234;37.558;127.058;2023-07-13T06:11:42;100197.16;;;19.42;50.96
74716;BME280;63234;37.558;127.058;2023-07-13T06:14:08;100197.97;;;19.37;51.34
74716;BME280;63234;37.558;127.058;2023-07-13T06:16:34;100206.00;;;19.47;51.25
74716;BME280;63234;37.558;127.058;2023-07-13T06:19:00;100195.00;;;19.39;49.73
74716;BME280;63234;37.558;127.058;2023-07-13T06:21:26;100203.34;;;19.37;50.17
74716;BME280;63234;37.558;127.058;2023-07-13T06:23:52;100219.75;;;19.51;50.07
74716;BME280;63234;37.558;127.058;2023-07-13T06:26:19;100224.63;;;19.44;50.11
74716;BME280;63234;37.558;127.058;2023-07-13T06:28:45;100213.25;;;19.52;50.02
74716;BME280;63234;37.558;127.058;2023-07-13T06:31:13;100214.03;;;19.58;49.76
74716;BME280;63234;37.558;127.058;2023-07-13T06:33:39;100221.66;;;19.45;50.10
74716;BME280;63234;37.558;127.058;2023-07-13T06:36:06;100220.50;;;19.67;49.79
74716;BME280;63234;37.558;127.058;2023-07-13T06:38:34;100231.03;;;19.58;49.85
74716;BME280;63234;37.558;127.058;2023-07-13T06:41:00;100226.44;;;19.54;50.12
74716;BME280;63234;37.558;127.058;2023-07-13T06:43:26;100219.97;;;19.65;49.66
74716;BME280;63234;37.558;127.058;2023-07-13T06:45:55;100223.16;;;19.72;49.92
74716;BME280;63234;37.558;127.058;2023-07-13T06:48:21;100222.31;;;19.77;49.69
74716;BME280;63234;37.558;127.058;2023-07-13T06:50:50;100223.31;;;19.91;49.36
74716;BME280;63234;37.558;127.058;2023-07-13T06:53:18;100218.31;;;20.08;49.27
74716;BME280;63234;37.558;127.058;2023-07-13T06:55:45;100222.28;;;20.21;48.85
74716;BME280;63234;37.558;127.058;2023-07-13T06:58:11;100223.78;;;20.32;48.85
74716;BME280;63234;37.558;127.058;2023-07-13T07:00:38;100227.00;;;20.34;48.23
74716;BME280;63234;37.558;127.058;2023-07-13T07:03:05;100214.03;;;20.36;47.93
74716;BME280;63234;37.558;127.058;2023-07-13T07:05:31;100233.88;;;20.56;47.65
74716;BME280;63234;37.558;127.058;2023-07-13T07:07:58;100217.19;;;20.44;47.33
74716;BME280;63234;37.558;127.058;2023-07-13T07:10:25;100222.97;;;20.32;47.02
74716;BME280;63234;37.558;127.058;2023-07-13T07:12:51;100232.59;;;20.43;46.48
74716;BME280;63234;37.558;127.058;2023-07-13T07:15:18;100218.22;;;20.53;47.11
74716;BME280;63234;37.558;127.058;2023-07-13T07:17:44;100219.06;;;20.77;47.00
74716;BME280;63234;37.558;127.058;2023-07-13T07:20:10;100219.50;;;20.84;45.74
74716;BME280;63234;37.558;127.058;2023-07-13T07:22:36;100217.81;;;20.94;45.67
74716;BME280;63234;37.558;127.058;2023-07-13T07:25:03;100222.78;;;21.05;44.48
74716;BME280;63234;37.558;127.058;2023-07-13T07:27:29;100221.59;;;20.93;45.36
74716;BME280;63234;37.558;127.058;2023-07-13T07:29:55;100217.81;;;20.94;43.66
74716;BME280;63234;37.558;127.058;2023-07-13T07:32:23;100223.53;;;21.11;43.79
74716;BME280;63234;37.558;127.058;2023-07-13T07:34:49;100229.41;;;21.18;43.86
74716;BME280;63234;37.558;127.058;2023-07-13T07:37:15;100231.88;;;21.15;44.37
74716;BME280;63234;37.558;127.058;2023-07-13T07:39:43;100225.97;;;21.13;44.47
74716;BME280;63234;37.558;127.058;2023-07-13T07:42:09;100232.63;;;21.44;44.61
74716;BME280;63234;37.558;127.058;2023-07-13T07:44:35;100233.63;;;21.48;44.07
74716;BME280;63234;37.558;127.058;2023-07-13T07:47:01;100232.25;;;21.51;43.89
74716;BME280;63234;37.558;127.058;2023-07-13T07:49:27;100231.81;;;21.63;43.59
74716;BME280;63234;37.558;127.058;2023-07-13T07:51:53;100235.03;;;21.84;43.91
74716;BME280;63234;37.558;127.058;2023-07-13T07:54:19;100244.03;;;21.98;43.01
74716;BME280;63234;37.558;127.058;2023-07-13T07:56:45;100248.50;;;21.89;43.20
74716;BME280;63234;37.558;127.058;2023-07-13T07:59:10;100240.28;;;21.94;43.06
74716;BME280;63234;37.558;127.058;2023-07-13T08:01:37;100243.88;;;22.08;41.93
74716;BME280;63234;37.558;127.058;2023-07-13T08:04:03;100239.78;;;22.11;42.59
74716;BME280;63234;37.558;127.058;2023-07-13T08:06:29;100246.75;;;22.17;42.80
74716;BME280;63234;37.558;127.058;2023-07-13T08:08:57;100246.38;;;22.05;42.16
74716;BME280;63234;37.558;127.058;2023-07-13T08:11:23;100240.56;;;22.11;40.77
74716;BME280;63234;37.558;127.058;2023-07-13T08:13:50;100243.06;;;22.27;40.34
74716;BME280;63234;37.558;127.058;2023-07-13T08:16:16;100243.13;;;22.21;40.49
74716;BME280;63234;37.558;127.058;2023-07-13T08:18:42;100239.22;;;22.47;40.07
74716;BME280;63234;37.558;127.058;2023-07-13T08:21:08;100249.28;;;22.27;40.53
74716;BME280;63234;37.558;127.058;2023-07-13T08:23:35;100233.47;;;22.48;39.57
74716;BME280;63234;37.558;127.058;2023-07-13T08:26:01;100247.88;;;22.30;39.86
74716;BME280;63234;37.558;127.058;2023-07-13T08:28:28;100234.56;;;22.14;39.95
74716;BME280;63234;37.558;127.058;2023-07-13T08:30:54;100236.66;;;22.36;39.60
74716;BME280;63234;37.558;127.058;2023-07-13T08:33:22;100243.72;;;22.37;40.09
74716;BME280;63234;37.558;127.058;2023-07-13T08:35:51;100237.59;;;22.45;40.32
74716;BME280;63234;37.558;127.058;2023-07-13T08:38:18;100239.63;;;22.54;40.77
74716;BME280;63234;37.558;127.058;2023-07-13T08:40:45;100236.53;;;22.60;40.64
74716;BME280;63234;37.558;127.058;2023-07-13T08:43:16;100244.97;;;22.73;39.51
74716;BME280;63234;37.558;127.058;2023-07-13T08:45:47;100230.25;;;23.06;39.04
74716;BME280;63234;37.558;127.058;2023-07-13T08:48:21;100230.84;;;23.03;39.29
74716;BME280;63234;37.558;127.058;2023-07-13T08:53:33;100240.19;;;22.97;39.43
74716;BME280;63234;37.558;127.058;2023-07-13T08:56:01;100238.59;;;22.96;40.00
74716;BME280;63234;37.558;127.058;2023-07-13T08:58:28;100247.03;;;22.95;40.04
74716;BME280;63234;37.558;127.058;2023-07-13T09:04:14;100238.88;;;23.36;38.53
74716;BME280;63234;37.558;127.058;2023-07-13T09:12:25;100242.28;;;23.28;39.03
74716;BME280;63234;37.558;127.058;2023-07-13T09:14:58;100238.78;;;23.41;39.24
74716;BME280;63234;37.558;127.058;2023-07-13T09:17:35;100236.16;;;23.50;39.01
74716;BME280;63234;37.558;127.058;2023-07-13T09:22:43;100234.47;;;23.26;38.80
74716;BME280;63234;37.558;127.058;2023-07-13T09:25:41;100238.72;;;23.55;39.01
74716;BME280;63234;37.558;127.058;2023-07-13T09:28:18;100228.88;;;23.73;39.51
74716;BME280;63234;37.558;127.058;2023-07-13T09:30:56;100229.53;;;23.92;38.32
74716;BME280;63234;37.558;127.058;2023-07-13T09:33:24;100231.84;;;23.85;38.05
74716;BME280;63234;37.558;127.058;2023-07-13T09:35:55;100231.94;;;23.44;38.47
74716;BME280;63234;37.558;127.058;2023-07-13T09:38:27;100238.34;;;23.48;39.88
74716;BME280;63234;37.558;127.058;2023-07-13T09:44:14;100238.34;;;23.62;40.66
74716;BME280;63234;37.558;127.058;2023-07-13T09:46:45;100236.47;;;23.34;41.79
74716;BME280;63234;37.558;127.058;2023-07-13T09:49:12;100247.63;;;23.33;42.58
74716;BME280;63234;37.558;127.058;2023-07-13T09:51:41;100230.91;;;23.40;42.77
74716;BME280;63234;37.558;127.058;2023-07-13T09:54:20;100239.47;;;23.47;42.60
74716;BME280;63234;37.558;127.058;2023-07-13T09:56:46;100241.34;;;23.60;42.98
74716;BME280;63234;37.558;127.058;2023-07-13T09:59:22;100242.47;;;23.59;42.74
74716;BME280;63234;37.558;127.058;2023-07-13T10:01:49;100232.13;;;23.47;43.06
74716;BME280;63234;37.558;127.058;2023-07-13T10:04:19;100231.63;;;23.45;42.67
74716;BME280;63234;37.558;127.058;2023-07-13T10:06:46;100237.72;;;23.65;42.64
74716;BME280;63234;37.558;127.058;2023-07-13T10:09:18;100243.91;;;23.29;42.57
74716;BME280;63234;37.558;127.058;2023-07-13T10:11:44;100243.31;;;23.32;42.14
74716;BME280;63234;37.558;127.058;2023-07-13T10:14:21;100223.09;;;23.38;42.16
74716;BME280;63234;37.558;127.058;2023-07-13T10:16:58;100252.28;;;23.69;41.92
74716;BME280;63234;37.558;127.058;2023-07-13T10:19:29;100244.31;;;23.86;40.97
74716;BME280;63234;37.558;127.058;2023-07-13T10:22:00;100237.91;;;24.04;41.38
74716;BME280;63234;37.558;127.058;2023-07-13T10:24:35;100233.69;;;24.21;40.92
74716;BME280;63234;37.558;127.058;2023-07-13T10:27:16;100227.34;;;24.48;40.90
74716;BME280;63234;37.558;127.058;2023-07-13T10:32:34;100235.44;;;24.70;39.85
74716;BME280;63234;37.558;127.058;2023-07-13T10:35:00;100232.13;;;24.82;39.74
74716;BME280;63234;37.558;127.058;2023-07-13T10:40:16;100235.06;;;24.32;40.70
74716;BME280;63234;37.558;127.058;2023-07-13T10:42:46;100242.53;;;24.26;41.52
74716;BME280;63234;37.558;127.058;2023-07-13T10:45:23;100246.44;;;24.12;40.55
74716;BME280;63234;37.558;127.058;2023-07-13T10:47:51;100235.25;;;23.91;41.18
74716;BME280;63234;37.558;127.058;2023-07-13T10:50:24;100241.28;;;23.88;41.24
74716;BME280;63234;37.558;127.058;2023-07-13T10:52:53;100242.00;;;23.79;42.91
74716;BME280;63234;37.558;127.058;2023-07-13T10:58:23;100239.25;;;24.16;41.11
74716;BME280;63234;37.558;127.058;2023-07-13T11:03:38;100232.91;;;24.20;41.17
74716;BME280;63234;37.558;127.058;2023-07-13T11:09:31;100230.06;;;24.48;39.90
74716;BME280;63234;37.558;127.058;2023-07-13T11:12:06;100231.25;;;24.64;39.37
74716;BME280;63234;37.558;127.058;2023-07-13T11:14:37;100224.84;;;24.60;40.03
74716;BME280;63234;37.558;127.058;2023-07-13T11:22:49;100230.78;;;24.62;38.18
74716;BME280;63234;37.558;127.058;2023-07-13T11:25:27;100232.50;;;24.89;37.76
74716;BME280;63234;37.558;127.058;2023-07-13T11:30:36;100220.81;;;25.55;35.14
74716;BME280;63234;37.558;127.058;2023-07-13T11:35:37;100223.41;;;25.60;34.62
74716;BME280;63234;37.558;127.058;2023-07-13T11:38:16;100222.53;;;25.25;34.92
74716;BME280;63234;37.558;127.058;2023-07-13T11:41:14;100220.13;;;24.75;35.43
74716;BME280;63234;37.558;127.058;2023-07-13T11:43:41;100218.41;;;24.47;35.48
74716;BME280;63234;37.558;127.058;2023-07-13T11:46:21;100216.47;;;24.25;35.79
74716;BME280;63234;37.558;127.058;2023-07-13T11:48:49;100218.28;;;24.08;36.22
74716;BME280;63234;37.558;127.058;2023-07-13T11:51:29;100223.91;;;24.11;35.80
74716;BME280;63234;37.558;127.058;2023-07-13T11:54:10;100223.72;;;24.08;36.10
74716;BME280;63234;37.558;127.058;2023-07-13T11:56:40;100207.66;;;23.97;35.81
74716;BME280;63234;37.558;127.058;2023-07-13T11:59:07;100226.28;;;24.13;35.54
74716;BME280;63234;37.558;127.058;2023-07-13T12:01:43;100230.16;;;23.98;35.47
74716;BME280;63234;37.558;127.058;2023-07-13T12:04:23;100231.63;;;23.95;35.58
74716;BME280;63234;37.558;127.058;2023-07-13T12:07:16;100237.91;;;24.04;35.89
74716;BME280;63234;37.558;127.058;2023-07-13T12:09:42;100232.72;;;24.17;35.77
74716;BME280;63234;37.558;127.058;2023-07-13T12:12:18;100230.97;;;24.43;35.18
74716;BME280;63234;37.558;127.058;2023-07-13T12:14:44;100226.78;;;24.60;34.50
74716;BME280;63234;37.558;127.058;2023-07-13T12:17:18;100228.28;;;24.83;34.65
74716;BME280;63234;37.558;127.058;2023-07-13T12:19:48;100223.84;;;24.87;34.85
74716;BME280;63234;37.558;127.058;2023-07-13T12:22:16;100228.59;;;25.22;34.23
74716;BME280;63234;37.558;127.058;2023-07-13T12:24:43;100210.13;;;25.10;34.60
74716;BME280;63234;37.558;127.058;2023-07-13T12:27:25;100217.09;;;25.33;35.50
74716;BME280;63234;37.558;127.058;2023-07-13T12:30:00;100221.47;;;25.52;34.99
74716;BME280;63234;37.558;127.058;2023-07-13T12:32:26;100217.47;;;25.58;35.18
74716;BME280;63234;37.558;127.058;2023-07-13T12:34:55;100214.25;;;25.56;33.58
74716;BME280;63234;37.558;127.058;2023-07-13T12:37:21;100213.13;;;25.74;33.23
74716;BME280;63234;37.558;127.058;2023-07-13T12:39:48;100218.25;;;25.50;32.67
74716;BME280;63234;37.558;127.058;2023-07-13T12:42:52;100217.41;;;25.32;33.27
74716;BME280;63234;37.558;127.058;2023-07-13T12:45:21;100209.59;;;25.39;33.40
74716;BME280;63234;37.558;127.058;2023-07-13T12:47:59;100211.22;;;25.66;33.12
74716;BME280;63234;37.558;127.058;2023-07-13T12:50:37;100211.19;;;25.31;33.18
74716;BME280;63234;37.558;127.058;2023-07-13T12:53:05;100212.97;;;25.36;33.09
74716;BME280;63234;37.558;127.058;2023-07-13T12:55:44;100212.97;;;25.53;34.11
74716;BME280;63234;37.558;127.058;2023-07-13T12:58:35;100195.81;;;25.53;33.56
74716;BME280;63234;37.558;127.058;2023-07-13T13:01:03;100209.28;;;25.58;33.69
74716;BME280;63234;37.558;127.058;2023-07-13T13:03:36;100200.16;;;25.54;31.84
74716;BME280;63234;37.558;127.058;2023-07-13T13:08:46;100189.09;;;25.76;33.06
74716;BME280;63234;37.558;127.058;2023-07-13T13:11:18;100202.41;;;25.60;32.14
74716;BME280;63234;37.558;127.058;2023-07-13T13:13:44;100197.09;;;25.47;32.21
74716;BME280;63234;37.558;127.058;2023-07-13T13:16:17;100189.94;;;25.59;32.59
74716;BME280;63234;37.558;127.058;2023-07-13T13:18:45;100184.44;;;25.68;32.03
74716;BME280;63234;37.558;127.058;2023-07-13T13:21:11;100188.94;;;25.73;31.55
74716;BME280;63234;37.558;127.058;2023-07-13T13:23:37;100195.19;;;25.73;31.98
74716;BME280;63234;37.558;127.058;2023-07-13T13:26:10;100195.06;;;25.87;31.35